sensor_id;sensor_type;location;lat;lon;timestamp;P1;durP1;ratioP1;P2;durP2;ratioP2
65751;SDS011;52486;51.098;13.770;2023-02-23T00:01:26;1.83;;;1.48;;
65751;SDS011;52486;51.098;13.770;2023-02-23T00:03:53;2.05;;;1.60;;
65751;SDS011;52486;51.098;13.770;2023-02-23T00:06:20;1.50;;;1.40;;
65751;SDS011;52486;51.098;13.770;2023-02-23T00:08:48;1.50;;;1.40;;
65751;SDS011;52486;51.098;13.770;2023-02-23T00:11:14;2.13;;;1.40;;
65751;SDS011;52486;51.098;13.770;2023-02-23T00:13:41;1.73;;;1.63;;
65751;SDS011;52486;51.098;13.770;2023-02-23T00:16:11;2.30;;;1.50;;
65751;SDS011;52486;51.098;13.770;2023-02-23T00:18:45;1.70;;;1.60;;
65751;SDS011;52486;51.098;13.770;2023-02-23T00:21:22;1.63;;;1.45;;
65751;SDS011;52486;51.098;13.770;2023-02-23T00:23:50;1.45;;;1.35;;
65751;SDS011;52486;51.098;13.770;2023-02-23T00:26:20;1.80;;;1.70;;
65751;SDS011;52486;51.098;13.770;2023-02-23T00:28:47;2.28;;;1.73;;
65751;SDS011;52486;51.098;13.770;2023-02-23T00:31:15;1.58;;;1.45;;
65751;SDS011;52486;51.098;13.770;2023-02-23T00:33:41;1.50;;;1.40;;
65751;SDS011;52486;51.098;13.770;2023-02-23T00:36:08;1.60;;;1.50;;
65751;SDS011;52486;51.098;13.770;2023-02-23T00:38:36;1.80;;;1.63;;
65751;SDS011;52486;51.098;13.770;2023-02-23T00:41:07;1.25;;;1.13;;
65751;SDS011;52486;51.098;13.770;2023-02-23T00:43:36;1.92;;;1.50;;
65751;SDS011;52486;51.098;13.770;2023-02-23T00:46:03;1.70;;;1.60;;
65751;SDS011;52486;51.098;13.770;2023-02-23T00:48:33;2.47;;;1.63;;
65751;SDS011;52486;51.098;13.770;2023-02-23T00:51:03;2.00;;;1.80;;
65751;SDS011;52486;51.098;13.770;2023-02-23T00:55:55;2.47;;;1.70;;
65751;SDS011;52486;51.098;13.770;2023-02-23T00:58:22;1.80;;;1.50;;
65751;SDS011;52486;51.098;13.770;2023-02-23T01:00:48;1.67;;;1.58;;
65751;SDS011;52486;51.098;13.770;2023-02-23T01:03:14;1.40;;;1.30;;
65751;SDS011;52486;51.098;13.770;2023-02-23T01:05:40;1.92;;;1.60;;
65751;SDS011;52486;51.098;13.770;2023-02-23T01:08:05;1.48;;;1.38;;
65751;SDS011;52486;51.098;13.770;2023-02-23T01:10:40;1.65;;;1.50;;
65751;SDS011;52486;51.098;13.770;2023-02-23T01:13:08;1.60;;;1.50;;
65751;SDS011;52486;51.098;13.770;2023-02-23T01:15:34;2.10;;;1.45;;
65751;SDS011;52486;51.098;13.770;2023-02-23T01:18:05;1.40;;;1.30;;
65751;SDS011;52486;51.098;13.770;2023-02-23T01:20:32;1.55;;;1.45;;
65751;SDS011;52486;51.098;13.770;2023-02-23T01:23:00;2.90;;;1.65;;
65751;SDS011;52486;51.098;13.770;2023-02-23T01:25:27;1.58;;;1.48;;
65751;SDS011;52486;51.098;13.770;2023-02-23T01:27:55;1.50;;;1.40;;
65751;SDS011;52486;51.098;13.770;2023-02-23T01:30:21;1.45;;;1.35;;
65751;SDS011;52486;51.098;13.770;2023-02-23T01:32:47;2.10;;;1.50;;
65751;SDS011;52486;51.098;13.770;2023-02-23T01:35:13;1.58;;;1.48;;
65751;SDS011;52486;51.098;13.770;2023-02-23T01:37:40;2.20;;;1.42;;
65751;SDS011;52486;51.098;13.770;2023-02-23T01:40:11;1.73;;;1.63;;
65751;SDS011;52486;51.098;13.770;2023-02-23T01:42:52;2.13;;;1.35;;
65751;SDS011;52486;51.098;13.770;2023-02-23T01:48:05;1.60;;;1.48;;
65751;SDS011;52486;51.098;13.770;2023-02-23T01:53:29;1.60;;;1.50;;
65751;SDS011;52486;51.098;13.770;2023-02-23T01:56:00;1.55;;;1.45;;
65751;SDS011;52486;51.098;13.770;2023-02-23T01:58:35;1.33;;;1.20;;
65751;SDS011;52486;51.098;13.770;2023-02-23T02:01:03;1.40;;;1.23;;
65751;SDS011;52486;51.098;13.770;2023-02-23T02:03:37;2.25;;;1.58;;
65751;SDS011;52486;51.098;13.770;2023-02-23T02:06:06;1.70;;;1.60;;
65751;SDS011;52486;51.098;13.770;2023-02-23T02:08:34;1.58;;;1.48;;
65751;SDS011;52486;51.098;13.770;2023-02-23T02:11:10;2.88;;;1.48;;
65751;SDS011;52486;51.098;13.770;2023-02-23T02:13:57;1.73;;;1.60;;
65751;SDS011;52486;51.098;13.770;2023-02-23T02:24:50;1.70;;;1.60;;
65751;SDS011;52486;51.098;13.770;2023-02-23T02:27:54;1.98;;;1.65;;
65751;SDS011;52486;51.098;13.770;2023-02-23T02:33:44;1.70;;;1.50;;
65751;SDS011;52486;51.098;13.770;2023-02-23T02:39:55;1.60;;;1.33;;
65751;SDS011;52486;51.098;13.770;2023-02-23T02:45:55;1.60;;;1.50;;
65751;SDS011;52486;51.098;13.770;2023-02-23T02:54:12;1.60;;;1.40;;
65751;SDS011;52486;51.098;13.770;2023-02-23T02:56:55;1.48;;;1.38;;
65751;SDS011;52486;51.098;13.770;2023-02-23T02:59:22;1.60;;;1.50;;
65751;SDS011;52486;51.098;13.770;2023-02-23T03:02:12;1.65;;;1.55;;
65751;SDS011;52486;51.098;13.770;2023-02-23T03:05:12;1.55;;;1.42;;
65751;SDS011;52486;51.098;13.770;2023-02-23T03:14:40;1.73;;;1.50;;
65751;SDS011;52486;51.098;13.770;2023-02-23T03:25:52;4.00;;;1.60;;
65751;SDS011;52486;51.098;13.770;2023-02-23T03:35:13;1.40;;;1.30;;
65751;SDS011;52486;51.098;13.770;2023-02-23T03:38:21;2.58;;;1.33;;
65751;SDS011;52486;51.098;13.770;2023-02-23T03:41:14;1.67;;;1.40;;
65751;SDS011;52486;51.098;13.770;2023-02-23T03:44:05;1.23;;;1.13;;
65751;SDS011;52486;51.098;13.770;2023-02-23T03:46:57;2.85;;;1.38;;
65751;SDS011;52486;51.098;13.770;2023-02-23T03:49:44;1.23;;;1.17;;
65751;SDS011;52486;51.098;13.770;2023-02-23T03:52:35;2.08;;;1.50;;
65751;SDS011;52486;51.098;13.770;2023-02-23T03:55:24;1.50;;;1.40;;
65751;SDS011;52486;51.098;13.770;2023-02-23T03:58:13;2.13;;;1.60;;
65751;SDS011;52486;51.098;13.770;2023-02-23T04:01:04;2.42;;;1.33;;
65751;SDS011;52486;51.098;13.770;2023-02-23T04:03:51;1.50;;;1.40;;
65751;SDS011;52486;51.098;13.770;2023-02-23T04:06:38;1.48;;;1.38;;
65751;SDS011;52486;51.098;13.770;2023-02-23T04:09:26;1.52;;;1.40;;
65751;SDS011;52486;51.098;13.770;2023-02-23T04:12:15;1.63;;;1.45;;
65751;SDS011;52486;51.098;13.770;2023-02-23T04:15:29;1.40;;;1.30;;
65751;SDS011;52486;51.098;13.770;2023-02-23T04:18:04;1.55;;;1.33;;
65751;SDS011;52486;51.098;13.770;2023-02-23T04:22:57;1.35;;;1.15;;
65751;SDS011;52486;51.098;13.770;2023-02-23T04:25:23;1.55;;;1.20;;
65751;SDS011;52486;51.098;13.770;2023-02-23T04:27:49;1.77;;;1.60;;
65751;SDS011;52486;51.098;13.770;2023-02-23T04:30:15;1.38;;;1.20;;
65751;SDS011;52486;51.098;13.770;2023-02-23T04:32:41;1.98;;;1.63;;
65751;SDS011;52486;51.098;13.770;2023-02-23T04:35:08;1.50;;;1.40;;
65751;SDS011;52486;51.098;13.770;2023-02-23T04:37:34;1.60;;;1.50;;
65751;SDS011;52486;51.098;13.770;2023-02-23T04:39:59;1.70;;;1.60;;
65751;SDS011;52486;51.098;13.770;2023-02-23T04:42:25;1.50;;;1.40;;
65751;SDS011;52486;51.098;13.770;2023-02-23T04:44:51;2.38;;;1.50;;
65751;SDS011;52486;51.098;13.770;2023-02-23T04:47:16;1.48;;;1.38;;
65751;SDS011;52486;51.098;13.770;2023-02-23T04:49:43;1.35;;;1.20;;
65751;SDS011;52486;51.098;13.770;2023-02-23T04:52:09;2.70;;;1.50;;
65751;SDS011;52486;51.098;13.770;2023-02-23T04:54:38;1.92;;;1.58;;
65751;SDS011;52486;51.098;13.770;2023-02-23T04:57:04;2.10;;;1.53;;
65751;SDS011;52486;51.098;13.770;2023-02-23T04:59:30;1.70;;;1.60;;
65751;SDS011;52486;51.098;13.770;2023-02-23T05:01:57;2.17;;;1.48;;
65751;SDS011;52486;51.098;13.770;2023-02-23T05:04:22;2.40;;;1.70;;
65751;SDS011;52486;51.098;13.770;2023-02-23T05:06:48;1.42;;;1.33;;
65751;SDS011;52486;51.098;13.770;2023-02-23T05:09:14;1.50;;;1.35;;
65751;SDS011;52486;51.098;13.770;2023-02-23T05:11:40;1.70;;;1.60;;
65751;SDS011;52486;51.098;13.770;2023-02-23T05:14:06;1.70;;;1.30;;
65751;SDS011;52486;51.098;13.770;2023-02-23T05:16:33;1.60;;;1.50;;
65751;SDS011;52486;51.098;13.770;2023-02-23T05:18:58;1.52;;;1.42;;
65751;SDS011;52486;51.098;13.770;2023-02-23T05:21:24;1.73;;;1.63;;
65751;SDS011;52486;51.098;13.770;2023-02-23T05:23:50;1.48;;;1.38;;
65751;SDS011;52486;51.098;13.770;2023-02-23T05:26:15;1.67;;;1.58;;
65751;SDS011;52486;51.098;13.770;2023-02-23T05:28:43;1.70;;;1.60;;
65751;SDS011;52486;51.098;13.770;2023-02-23T05:31:09;1.48;;;1.38;;
65751;SDS011;52486;51.098;13.770;2023-02-23T05:33:35;1.52;;;1.40;;
65751;SDS011;52486;51.098;13.770;2023-02-23T05:36:08;1.40;;;1.20;;
65751;SDS011;52486;51.098;13.770;2023-02-23T05:38:35;1.48;;;1.38;;
65751;SDS011;52486;51.098;13.770;2023-02-23T05:41:05;1.52;;;1.35;;
65751;SDS011;52486;51.098;13.770;2023-02-23T05:43:31;1.85;;;1.60;;
65751;SDS011;52486;51.098;13.770;2023-02-23T05:45:57;1.65;;;1.55;;
65751;SDS011;52486;51.098;13.770;2023-02-23T05:48:25;3.63;;;1.60;;
65751;SDS011;52486;51.098;13.770;2023-02-23T05:50:51;2.92;;;1.70;;
65751;SDS011;52486;51.098;13.770;2023-02-23T05:53:17;1.77;;;1.67;;
65751;SDS011;52486;51.098;13.770;2023-02-23T05:55:43;1.40;;;1.20;;
65751;SDS011;52486;51.098;13.770;2023-02-23T05:58:09;2.10;;;1.42;;
65751;SDS011;52486;51.098;13.770;2023-02-23T06:00:34;1.65;;;1.40;;
65751;SDS011;52486;51.098;13.770;2023-02-23T06:03:00;1.90;;;1.38;;
65751;SDS011;52486;51.098;13.770;2023-02-23T06:05:26;1.55;;;1.45;;
65751;SDS011;52486;51.098;13.770;2023-02-23T06:07:52;2.15;;;1.50;;
65751;SDS011;52486;51.098;13.770;2023-02-23T06:10:18;1.83;;;1.38;;
65751;SDS011;52486;51.098;13.770;2023-02-23T06:12:44;1.60;;;1.50;;
65751;SDS011;52486;51.098;13.770;2023-02-23T06:15:09;4.32;;;1.50;;
65751;SDS011;52486;51.098;13.770;2023-02-23T06:17:35;1.70;;;1.60;;
65751;SDS011;52486;51.098;13.770;2023-02-23T06:20:02;2.10;;;1.55;;
65751;SDS011;52486;51.098;13.770;2023-02-23T06:22:29;2.40;;;1.40;;
65751;SDS011;52486;51.098;13.770;2023-02-23T06:24:55;2.50;;;1.30;;
65751;SDS011;52486;51.098;13.770;2023-02-23T06:27:21;1.58;;;1.40;;
65751;SDS011;52486;51.098;13.770;2023-02-23T06:29:46;2.40;;;1.50;;
65751;SDS011;52486;51.098;13.770;2023-02-23T06:32:12;1.40;;;1.30;;
65751;SDS011;52486;51.098;13.770;2023-02-23T06:34:38;1.63;;;1.48;;
65751;SDS011;52486;51.098;13.770;2023-02-23T06:37:04;1.67;;;1.30;;
65751;SDS011;52486;51.098;13.770;2023-02-23T06:39:30;1.77;;;1.42;;
65751;SDS011;52486;51.098;13.770;2023-02-23T06:41:56;1.25;;;1.15;;
65751;SDS011;52486;51.098;13.770;2023-02-23T06:44:22;2.28;;;1.50;;
65751;SDS011;52486;51.098;13.770;2023-02-23T06:46:47;1.77;;;1.38;;
65751;SDS011;52486;51.098;13.770;2023-02-23T06:49:13;2.03;;;1.60;;
65751;SDS011;52486;51.098;13.770;2023-02-23T06:51:39;22.55;;;4.32;;
65751;SDS011;52486;51.098;13.770;2023-02-23T06:54:04;7.00;;;3.30;;
65751;SDS011;52486;51.098;13.770;2023-02-23T06:56:30;5.68;;;3.60;;
65751;SDS011;52486;51.098;13.770;2023-02-23T06:58:55;8.57;;;3.28;;
65751;SDS011;52486;51.098;13.770;2023-02-23T07:01:21;4.28;;;3.30;;
65751;SDS011;52486;51.098;13.770;2023-02-23T07:03:47;5.75;;;3.33;;
65751;SDS011;52486;51.098;13.770;2023-02-23T07:06:12;8.13;;;3.80;;
65751;SDS011;52486;51.098;13.770;2023-02-23T07:08:38;6.00;;;3.78;;
65751;SDS011;52486;51.098;13.770;2023-02-23T07:11:07;8.75;;;4.28;;
65751;SDS011;52486;51.098;13.770;2023-02-23T07:16:00;8.77;;;4.03;;
65751;SDS011;52486;51.098;13.770;2023-02-23T07:18:26;9.00;;;5.20;;
65751;SDS011;52486;51.098;13.770;2023-02-23T07:20:52;8.10;;;4.80;;
65751;SDS011;52486;51.098;13.770;2023-02-23T07:23:17;6.78;;;5.03;;
65751;SDS011;52486;51.098;13.770;2023-02-23T07:25:43;16.75;;;6.15;;
65751;SDS011;52486;51.098;13.770;2023-02-23T07:28:09;7.07;;;5.03;;
65751;SDS011;52486;51.098;13.770;2023-02-23T07:30:38;7.90;;;5.00;;
65751;SDS011;52486;51.098;13.770;2023-02-23T07:33:04;5.75;;;4.60;;
65751;SDS011;52486;51.098;13.770;2023-02-23T07:35:29;7.05;;;4.70;;
65751;SDS011;52486;51.098;13.770;2023-02-23T07:37:55;10.35;;;4.75;;
65751;SDS011;52486;51.098;13.770;2023-02-23T07:40:21;6.03;;;4.47;;
65751;SDS011;52486;51.098;13.770;2023-02-23T07:42:47;8.52;;;4.80;;
65751;SDS011;52486;51.098;13.770;2023-02-23T07:45:13;8.00;;;4.80;;
65751;SDS011;52486;51.098;13.770;2023-02-23T07:47:38;9.60;;;5.90;;
65751;SDS011;52486;51.098;13.770;2023-02-23T07:50:04;8.23;;;5.18;;
65751;SDS011;52486;51.098;13.770;2023-02-23T07:52:36;9.00;;;5.03;;
65751;SDS011;52486;51.098;13.770;2023-02-23T07:55:04;7.75;;;5.03;;
65751;SDS011;52486;51.098;13.770;2023-02-23T07:57:31;11.98;;;5.22;;
65751;SDS011;52486;51.098;13.770;2023-02-23T07:59:57;10.13;;;5.28;;
65751;SDS011;52486;51.098;13.770;2023-02-23T08:02:22;8.52;;;5.00;;
65751;SDS011;52486;51.098;13.770;2023-02-23T08:04:48;9.40;;;5.35;;
65751;SDS011;52486;51.098;13.770;2023-02-23T08:07:14;7.15;;;4.93;;
65751;SDS011;52486;51.098;13.770;2023-02-23T08:09:40;11.43;;;6.30;;
65751;SDS011;52486;51.098;13.770;2023-02-23T08:12:06;9.93;;;4.93;;
65751;SDS011;52486;51.098;13.770;2023-02-23T08:14:32;6.90;;;5.20;;
65751;SDS011;52486;51.098;13.770;2023-02-23T08:16:57;12.43;;;5.00;;
65751;SDS011;52486;51.098;13.770;2023-02-23T08:19:25;11.23;;;6.82;;
65751;SDS011;52486;51.098;13.770;2023-02-23T08:21:51;9.07;;;5.60;;
65751;SDS011;52486;51.098;13.770;2023-02-23T08:24:17;14.23;;;6.88;;
65751;SDS011;52486;51.098;13.770;2023-02-23T08:26:43;10.13;;;6.40;;
65751;SDS011;52486;51.098;13.770;2023-02-23T08:29:09;7.28;;;4.70;;
65751;SDS011;52486;51.098;13.770;2023-02-23T08:31:35;6.18;;;3.95;;
65751;SDS011;52486;51.098;13.770;2023-02-23T08:34:00;7.75;;;6.10;;
65751;SDS011;52486;51.098;13.770;2023-02-23T08:36:26;11.32;;;7.05;;
65751;SDS011;52486;51.098;13.770;2023-02-23T08:38:52;8.95;;;5.03;;
65751;SDS011;52486;51.098;13.770;2023-02-23T08:41:18;7.32;;;4.70;;
65751;SDS011;52486;51.098;13.770;2023-02-23T08:43:45;7.30;;;5.15;;
65751;SDS011;52486;51.098;13.770;2023-02-23T08:46:11;7.63;;;5.22;;
65751;SDS011;52486;51.098;13.770;2023-02-23T08:48:37;9.43;;;7.72;;
65751;SDS011;52486;51.098;13.770;2023-02-23T08:51:04;16.77;;;7.72;;
65751;SDS011;52486;51.098;13.770;2023-02-23T08:53:31;8.00;;;5.68;;
65751;SDS011;52486;51.098;13.770;2023-02-23T08:55:58;8.10;;;5.90;;
65751;SDS011;52486;51.098;13.770;2023-02-23T08:58:25;8.75;;;6.50;;
65751;SDS011;52486;51.098;13.770;2023-02-23T09:00:52;9.07;;;5.68;;
65751;SDS011;52486;51.098;13.770;2023-02-23T09:03:18;7.85;;;5.20;;
65751;SDS011;52486;51.098;13.770;2023-02-23T09:05:45;8.15;;;5.18;;
65751;SDS011;52486;51.098;13.770;2023-02-23T09:08:11;8.75;;;4.85;;
65751;SDS011;52486;51.098;13.770;2023-02-23T09:10:38;8.40;;;4.90;;
65751;SDS011;52486;51.098;13.770;2023-02-23T09:13:04;4.78;;;4.03;;
65751;SDS011;52486;51.098;13.770;2023-02-23T09:15:30;8.63;;;4.43;;
65751;SDS011;52486;51.098;13.770;2023-02-23T09:18:00;8.60;;;4.43;;
65751;SDS011;52486;51.098;13.770;2023-02-23T09:20:26;5.93;;;3.73;;
65751;SDS011;52486;51.098;13.770;2023-02-23T09:22:52;7.00;;;3.95;;
65751;SDS011;52486;51.098;13.770;2023-02-23T09:25:18;4.93;;;3.70;;
65751;SDS011;52486;51.098;13.770;2023-02-23T09:27:46;4.95;;;3.65;;
65751;SDS011;52486;51.098;13.770;2023-02-23T09:30:13;4.57;;;3.47;;
65751;SDS011;52486;51.098;13.770;2023-02-23T09:32:45;8.30;;;2.92;;
65751;SDS011;52486;51.098;13.770;2023-02-23T09:35:12;5.70;;;3.42;;
65751;SDS011;52486;51.098;13.770;2023-02-23T09:37:42;4.82;;;3.30;;
65751;SDS011;52486;51.098;13.770;2023-02-23T09:42:48;7.88;;;2.95;;
65751;SDS011;52486;51.098;13.770;2023-02-23T09:45:42;5.57;;;2.85;;
65751;SDS011;52486;51.098;13.770;2023-02-23T09:48:23;4.97;;;3.20;;
65751;SDS011;52486;51.098;13.770;2023-02-23T09:50:55;2.65;;;2.40;;
65751;SDS011;52486;51.098;13.770;2023-02-23T09:56:11;7.25;;;3.08;;
65751;SDS011;52486;51.098;13.770;2023-02-23T09:58:42;9.18;;;2.83;;
65751;SDS011;52486;51.098;13.770;2023-02-23T10:04:09;8.65;;;3.10;;
65751;SDS011;52486;51.098;13.770;2023-02-23T10:21:32;5.60;;;3.03;;
65751;SDS011;52486;51.098;13.770;2023-02-23T10:24:00;5.65;;;2.70;;
65751;SDS011;52486;51.098;13.770;2023-02-23T10:26:41;4.30;;;2.95;;
65751;SDS011;52486;51.098;13.770;2023-02-23T10:34:50;6.95;;;3.00;;
65751;SDS011;52486;51.098;13.770;2023-02-23T10:37:19;3.35;;;2.70;;
65751;SDS011;52486;51.098;13.770;2023-02-23T10:39:45;5.00;;;3.10;;
65751;SDS011;52486;51.098;13.770;2023-02-23T10:42:14;4.00;;;2.97;;
65751;SDS011;52486;51.098;13.770;2023-02-23T10:44:45;3.35;;;2.63;;
65751;SDS011;52486;51.098;13.770;2023-02-23T10:47:18;4.70;;;2.45;;
65751;SDS011;52486;51.098;13.770;2023-02-23T10:52:14;2.88;;;2.15;;
65751;SDS011;52486;51.098;13.770;2023-02-23T10:54:45;3.03;;;2.20;;
65751;SDS011;52486;51.098;13.770;2023-02-23T11:00:34;5.65;;;2.40;;
65751;SDS011;52486;51.098;13.770;2023-02-23T11:02:40;6.32;;;2.20;;
65751;SDS011;52486;51.098;13.770;2023-02-23T11:05:24;3.15;;;2.33;;
65751;SDS011;52486;51.098;13.770;2023-02-23T11:08:10;4.00;;;2.22;;
65751;SDS011;52486;51.098;13.770;2023-02-23T11:11:00;4.07;;;1.98;;
65751;SDS011;52486;51.098;13.770;2023-02-23T11:13:43;3.75;;;2.20;;
65751;SDS011;52486;51.098;13.770;2023-02-23T11:16:23;2.65;;;2.17;;
65751;SDS011;52486;51.098;13.770;2023-02-23T11:19:02;3.28;;;2.15;;
65751;SDS011;52486;51.098;13.770;2023-02-23T11:21:31;2.10;;;1.90;;
65751;SDS011;52486;51.098;13.770;2023-02-23T11:24:45;2.67;;;2.08;;
65751;SDS011;52486;51.098;13.770;2023-02-23T11:26:56;3.88;;;2.20;;
65751;SDS011;52486;51.098;13.770;2023-02-23T11:29:38;5.47;;;2.20;;
65751;SDS011;52486;51.098;13.770;2023-02-23T11:32:16;2.90;;;2.20;;
65751;SDS011;52486;51.098;13.770;2023-02-23T11:34:45;5.38;;;2.20;;
65751;SDS011;52486;51.098;13.770;2023-02-23T11:39:53;6.68;;;2.75;;
65751;SDS011;52486;51.098;13.770;2023-02-23T11:42:19;5.43;;;2.10;;
65751;SDS011;52486;51.098;13.770;2023-02-23T11:45:06;11.80;;;1.92;;
65751;SDS011;52486;51.098;13.770;2023-02-23T11:47:40;4.82;;;2.08;;
65751;SDS011;52486;51.098;13.770;2023-02-23T11:53:00;3.30;;;2.20;;
65751;SDS011;52486;51.098;13.770;2023-02-23T11:55:30;4.15;;;2.28;;
65751;SDS011;52486;51.098;13.770;2023-02-23T12:01:02;2.75;;;1.70;;
65751;SDS011;52486;51.098;13.770;2023-02-23T12:03:47;3.45;;;1.90;;
65751;SDS011;52486;51.098;13.770;2023-02-23T12:06:31;2.25;;;1.48;;
65751;SDS011;52486;51.098;13.770;2023-02-23T12:09:04;3.50;;;1.90;;
65751;SDS011;52486;51.098;13.770;2023-02-23T12:11:32;5.40;;;1.88;;
65751;SDS011;52486;51.098;13.770;2023-02-23T12:14:24;2.90;;;1.60;;
65751;SDS011;52486;51.098;13.770;2023-02-23T12:16:52;3.00;;;1.50;;
65751;SDS011;52486;51.098;13.770;2023-02-23T12:19:57;2.15;;;1.83;;
65751;SDS011;52486;51.098;13.770;2023-02-23T12:22:25;1.92;;;1.67;;
65751;SDS011;52486;51.098;13.770;2023-02-23T12:25:03;2.75;;;1.52;;
65751;SDS011;52486;51.098;13.770;2023-02-23T12:37:48;4.82;;;1.70;;
65751;SDS011;52486;51.098;13.770;2023-02-23T12:40:26;4.75;;;1.63;;
65751;SDS011;52486;51.098;13.770;2023-02-23T12:50:54;5.40;;;3.25;;
65751;SDS011;52486;51.098;13.770;2023-02-23T12:53:30;5.22;;;3.13;;
65751;SDS011;52486;51.098;13.770;2023-02-23T13:03:49;8.88;;;6.00;;
65751;SDS011;52486;51.098;13.770;2023-02-23T13:06:19;7.50;;;6.00;;
65751;SDS011;52486;51.098;13.770;2023-02-23T13:09:07;10.23;;;5.85;;
65751;SDS011;52486;51.098;13.770;2023-02-23T13:19:58;7.90;;;5.88;;
65751;SDS011;52486;51.098;13.770;2023-02-23T13:25:01;9.45;;;6.15;;
65751;SDS011;52486;51.098;13.770;2023-02-23T13:30:08;8.20;;;5.72;;
65751;SDS011;52486;51.098;13.770;2023-02-23T13:32:34;7.38;;;5.45;;
65751;SDS011;52486;51.098;13.770;2023-02-23T13:35:09;8.30;;;5.78;;
65751;SDS011;52486;51.098;13.770;2023-02-23T13:37:43;7.13;;;5.60;;
65751;SDS011;52486;51.098;13.770;2023-02-23T13:42:58;6.55;;;5.75;;
65751;SDS011;52486;51.098;13.770;2023-02-23T13:45:27;11.13;;;6.18;;
65751;SDS011;52486;51.098;13.770;2023-02-23T13:50:41;7.68;;;6.03;;
65751;SDS011;52486;51.098;13.770;2023-02-23T13:53:39;7.80;;;5.03;;
65751;SDS011;52486;51.098;13.770;2023-02-23T13:56:08;8.57;;;5.07;;
65751;SDS011;52486;51.098;13.770;2023-02-23T14:01:21;9.68;;;5.82;;
65751;SDS011;52486;51.098;13.770;2023-02-23T14:03:52;8.95;;;5.72;;
65751;SDS011;52486;51.098;13.770;2023-02-23T14:06:21;9.68;;;5.53;;
65751;SDS011;52486;51.098;13.770;2023-02-23T14:08:51;9.00;;;5.90;;
65751;SDS011;52486;51.098;13.770;2023-02-23T14:11:42;12.65;;;6.40;;
65751;SDS011;52486;51.098;13.770;2023-02-23T14:14:10;8.63;;;6.03;;
65751;SDS011;52486;51.098;13.770;2023-02-23T14:16:41;7.28;;;5.45;;
65751;SDS011;52486;51.098;13.770;2023-02-23T14:19:41;10.65;;;6.35;;
65751;SDS011;52486;51.098;13.770;2023-02-23T14:22:03;8.20;;;5.32;;
65751;SDS011;52486;51.098;13.770;2023-02-23T14:24:34;9.70;;;5.95;;
65751;SDS011;52486;51.098;13.770;2023-02-23T14:29:42;10.23;;;5.38;;
65751;SDS011;52486;51.098;13.770;2023-02-23T14:32:39;5.82;;;4.78;;
65751;SDS011;52486;51.098;13.770;2023-02-23T14:38:04;8.45;;;5.10;;
65751;SDS011;52486;51.098;13.770;2023-02-23T14:40:39;10.32;;;5.60;;
65751;SDS011;52486;51.098;13.770;2023-02-23T14:46:07;8.90;;;5.25;;
65751;SDS011;52486;51.098;13.770;2023-02-23T14:48:38;6.13;;;4.63;;
65751;SDS011;52486;51.098;13.770;2023-02-23T14:51:13;10.75;;;4.20;;
65751;SDS011;52486;51.098;13.770;2023-02-23T14:53:48;7.65;;;4.00;;
65751;SDS011;52486;51.098;13.770;2023-02-23T14:56:22;5.00;;;3.67;;
65751;SDS011;52486;51.098;13.770;2023-02-23T14:58:52;5.70;;;3.13;;
65751;SDS011;52486;51.098;13.770;2023-02-23T15:01:38;6.55;;;4.05;;
65751;SDS011;52486;51.098;13.770;2023-02-23T15:04:08;7.40;;;3.28;;
65751;SDS011;52486;51.098;13.770;2023-02-23T15:06:38;6.18;;;3.38;;
65751;SDS011;52486;51.098;13.770;2023-02-23T15:09:12;5.55;;;3.20;;
65751;SDS011;52486;51.098;13.770;2023-02-23T15:11:42;3.33;;;2.97;;
65751;SDS011;52486;51.098;13.770;2023-02-23T15:14:10;3.47;;;3.10;;
65751;SDS011;52486;51.098;13.770;2023-02-23T15:16:42;7.40;;;3.00;;
65751;SDS011;52486;51.098;13.770;2023-02-23T15:19:10;5.15;;;3.30;;
65751;SDS011;52486;51.098;13.770;2023-02-23T15:21:41;6.40;;;3.10;;
65751;SDS011;52486;51.098;13.770;2023-02-23T15:24:11;8.55;;;3.30;;
65751;SDS011;52486;51.098;13.770;2023-02-23T15:26:40;7.90;;;3.30;;
65751;SDS011;52486;51.098;13.770;2023-02-23T15:29:14;6.40;;;3.08;;
65751;SDS011;52486;51.098;13.770;2023-02-23T15:31:43;3.95;;;3.00;;
65751;SDS011;52486;51.098;13.770;2023-02-23T15:34:19;7.25;;;3.13;;
65751;SDS011;52486;51.098;13.770;2023-02-23T15:37:06;6.45;;;3.55;;
65751;SDS011;52486;51.098;13.770;2023-02-23T15:39:42;8.07;;;3.90;;
65751;SDS011;52486;51.098;13.770;2023-02-23T15:42:31;12.05;;;3.60;;
65751;SDS011;52486;51.098;13.770;2023-02-23T15:48:02;4.82;;;3.40;;
65751;SDS011;52486;51.098;13.770;2023-02-23T15:50:32;12.68;;;4.13;;
65751;SDS011;52486;51.098;13.770;2023-02-23T15:53:16;4.82;;;3.70;;
65751;SDS011;52486;51.098;13.770;2023-02-23T15:55:46;7.22;;;3.65;;
65751;SDS011;52486;51.098;13.770;2023-02-23T16:00:42;8.95;;;3.72;;
65751;SDS011;52486;51.098;13.770;2023-02-23T16:06:23;9.00;;;3.60;;
65751;SDS011;52486;51.098;13.770;2023-02-23T16:08:56;6.25;;;4.00;;
65751;SDS011;52486;51.098;13.770;2023-02-23T16:11:22;8.02;;;4.05;;
65751;SDS011;52486;51.098;13.770;2023-02-23T16:13:50;8.02;;;3.65;;
65751;SDS011;52486;51.098;13.770;2023-02-23T16:16:19;4.90;;;3.63;;
65751;SDS011;52486;51.098;13.770;2023-02-23T16:18:53;9.25;;;3.75;;
65751;SDS011;52486;51.098;13.770;2023-02-23T16:21:26;3.85;;;3.45;;
65751;SDS011;52486;51.098;13.770;2023-02-23T16:23:58;10.10;;;3.58;;
65751;SDS011;52486;51.098;13.770;2023-02-23T16:28:59;5.05;;;3.33;;
65751;SDS011;52486;51.098;13.770;2023-02-23T16:31:40;8.02;;;3.70;;
65751;SDS011;52486;51.098;13.770;2023-02-23T16:34:17;8.90;;;3.97;;
65751;SDS011;52486;51.098;13.770;2023-02-23T16:36:47;6.45;;;2.95;;
65751;SDS011;52486;51.098;13.770;2023-02-23T16:39:14;8.45;;;3.70;;
65751;SDS011;52486;51.098;13.770;2023-02-23T16:41:42;6.82;;;3.75;;
65751;SDS011;52486;51.098;13.770;2023-02-23T16:44:13;9.02;;;3.58;;
65751;SDS011;52486;51.098;13.770;2023-02-23T16:49:26;12.32;;;3.53;;
65751;SDS011;52486;51.098;13.770;2023-02-23T16:51:57;8.60;;;3.30;;
65751;SDS011;52486;51.098;13.770;2023-02-23T16:54:24;6.22;;;3.45;;
65751;SDS011;52486;51.098;13.770;2023-02-23T16:56:49;10.60;;;3.45;;
65751;SDS011;52486;51.098;13.770;2023-02-23T16:59:19;7.53;;;3.40;;
65751;SDS011;52486;51.098;13.770;2023-02-23T17:01:46;5.32;;;3.60;;
65751;SDS011;52486;51.098;13.770;2023-02-23T17:04:19;5.95;;;3.65;;
65751;SDS011;52486;51.098;13.770;2023-02-23T17:06:45;7.65;;;3.13;;
65751;SDS011;52486;51.098;13.770;2023-02-23T17:09:21;5.32;;;3.13;;
65751;SDS011;52486;51.098;13.770;2023-02-23T17:11:48;5.78;;;3.28;;
65751;SDS011;52486;51.098;13.770;2023-02-23T17:14:18;5.00;;;3.13;;
65751;SDS011;52486;51.098;13.770;2023-02-23T17:16:49;3.88;;;3.28;;
65751;SDS011;52486;51.098;13.770;2023-02-23T17:19:16;8.65;;;3.33;;
65751;SDS011;52486;51.098;13.770;2023-02-23T17:21:43;7.22;;;3.10;;
65751;SDS011;52486;51.098;13.770;2023-02-23T17:24:10;5.75;;;3.38;;
65751;SDS011;52486;51.098;13.770;2023-02-23T17:26:36;3.72;;;3.08;;
65751;SDS011;52486;51.098;13.770;2023-02-23T17:29:03;3.70;;;3.08;;
65751;SDS011;52486;51.098;13.770;2023-02-23T17:31:29;4.15;;;3.65;;
65751;SDS011;52486;51.098;13.770;2023-02-23T17:33:56;4.95;;;4.20;;
65751;SDS011;52486;51.098;13.770;2023-02-23T17:36:22;5.47;;;3.60;;
65751;SDS011;52486;51.098;13.770;2023-02-23T17:38:51;4.15;;;3.47;;
65751;SDS011;52486;51.098;13.770;2023-02-23T17:41:22;7.25;;;3.90;;
65751;SDS011;52486;51.098;13.770;2023-02-23T17:43:49;5.78;;;4.10;;
65751;SDS011;52486;51.098;13.770;2023-02-23T17:46:15;5.03;;;3.60;;
65751;SDS011;52486;51.098;13.770;2023-02-23T17:48:41;5.88;;;3.60;;